sensor_id;sensor_type;location;lat;lon;timestamp;pressure;altitude;pressure_sealevel;temperature;humidity
14800;BME280;7491;57.750;11.970;2023-03-21T00:02:25;76540.81;;;-142.11;100.00
14800;BME280;7491;57.750;11.970;2023-03-21T00:04:52;76546.94;;;-142.11;100.00
14800;BME280;7491;57.750;11.970;2023-03-21T00:07:18;76546.94;;;-142.11;100.00
14800;BME280;7491;57.750;11.970;2023-03-21T00:09:46;76540.81;;;-142.11;100.00
14800;BME280;7491;57.750;11.970;2023-03-21T00:12:13;76546.94;;;-142.11;100.00
14800;BME280;7491;57.750;11.970;2023-03-21T00:14:41;76548.97;;;-142.11;100.00
14800;BME280;7491;57.750;11.970;2023-03-21T00:17:09;76551.00;;;-142.11;100.00
14800;BME280;7491;57.750;11.970;2023-03-21T00:19:35;76565.28;;;-142.11;100.00
14800;BME280;7491;57.750;11.970;2023-03-21T00:22:03;76551.00;;;-142.11;100.00
14800;BME280;7491;57.750;11.970;2023-03-21T00:24:30;76557.13;;;-142.11;100.00
14800;BME280;7491;57.750;11.970;2023-03-21T00:26:58;76563.25;;;-142.11;100.00
14800;BME280;7491;57.750;11.970;2023-03-21T00:29:25;76565.28;;;-142.11;100.00
14800;BME280;7491;57.750;11.970;2023-03-21T00:31:52;76561.19;;;-142.11;100.00
14800;BME280;7491;57.750;11.970;2023-03-21T00:34:18;76571.38;;;-142.11;100.00
14800;BME280;7491;57.750;11.970;2023-03-21T00:36:46;76559.16;;;-142.11;100.00
14800;BME280;7491;57.750;11.970;2023-03-21T00:39:12;76559.16;;;-142.11;100.00
14800;BME280;7491;57.750;11.970;2023-03-21T00:41:39;76561.19;;;-142.11;100.00
14800;BME280;7491;57.750;11.970;2023-03-21T00:44:08;76577.50;;;-142.11;100.00
14800;BME280;7491;57.750;11.970;2023-03-21T00:46:35;76569.34;;;-142.11;100.00
14800;BME280;7491;57.750;11.970;2023-03-21T00:49:02;76573.44;;;-142.11;100.00
14800;BME280;7491;57.750;11.970;2023-03-21T00:51:29;76569.34;;;-142.11;100.00
14800;BME280;7491;57.750;11.970;2023-03-21T00:53:57;76581.59;;;-142.11;100.00
14800;BME280;7491;57.750;11.970;2023-03-21T00:56:25;76599.94;;;-142.11;100.00
14800;BME280;7491;57.750;11.970;2023-03-21T00:58:52;76585.66;;;-142.11;100.00
14800;BME280;7491;57.750;11.970;2023-03-21T01:01:21;76583.63;;;-142.11;100.00
14800;BME280;7491;57.750;11.970;2023-03-21T01:03:48;76575.47;;;-142.11;100.00
14800;BME280;7491;57.750;11.970;2023-03-21T01:06:30;76571.38;;;-142.11;100.00
14800;BME280;7491;57.750;11.970;2023-03-21T01:08:57;76577.50;;;-142.11;100.00
14800;BME280;7491;57.750;11.970;2023-03-21T01:11:25;76569.34;;;-142.11;100.00
14800;BME280;7491;57.750;11.970;2023-03-21T01:13:53;76573.44;;;-142.11;100.00
14800;BME280;7491;57.750;11.970;2023-03-21T01:16:21;76569.34;;;-142.11;100.00
14800;BME280;7491;57.750;11.970;2023-03-21T01:18:48;76575.47;;;-142.11;100.00
14800;BME280;7491;57.750;11.970;2023-03-21T01:21:15;76579.53;;;-142.11;100.00
14800;BME280;7491;57.750;11.970;2023-03-21T01:23:42;76569.34;;;-142.11;100.00
14800;BME280;7491;57.750;11.970;2023-03-21T01:26:10;76563.25;;;-142.11;100.00
14800;BME280;7491;57.750;11.970;2023-03-21T01:28:39;76567.31;;;-142.11;100.00
14800;BME280;7491;57.750;11.970;2023-03-21T01:31:06;76573.44;;;-142.11;100.00
14800;BME280;7491;57.750;11.970;2023-03-21T01:33:35;76599.94;;;-142.11;100.00
14800;BME280;7491;57.750;11.970;2023-03-21T01:36:02;76604.00;;;-142.11;100.00
14800;BME280;7491;57.750;11.970;2023-03-21T01:38:30;76614.22;;;-142.11;100.00
14800;BME280;7491;57.750;11.970;2023-03-21T01:40:59;76620.31;;;-142.11;100.00
14800;BME280;7491;57.750;11.970;2023-03-21T01:43:28;76632.56;;;-142.11;100.00
14800;BME280;7491;57.750;11.970;2023-03-21T01:46:27;76616.25;;;-142.11;100.00
14800;BME280;7491;57.750;11.970;2023-03-21T01:48:58;76630.50;;;-142.11;100.00
14800;BME280;7491;57.750;11.970;2023-03-21T01:51:28;76636.63;;;-142.11;100.00
14800;BME280;7491;57.750;11.970;2023-03-21T01:53:56;76642.75;;;-142.11;100.00
14800;BME280;7491;57.750;11.970;2023-03-21T01:56:25;76644.78;;;-142.11;100.00
14800;BME280;7491;57.750;11.970;2023-03-21T01:58:57;76652.94;;;-142.11;100.00
14800;BME280;7491;57.750;11.970;2023-03-21T02:01:29;76642.75;;;-142.11;100.00
14800;BME280;7491;57.750;11.970;2023-03-21T02:04:00;76657.03;;;-142.11;100.00
14800;BME280;7491;57.750;11.970;2023-03-21T02:06:33;76659.06;;;-142.11;100.00
14800;BME280;7491;57.750;11.970;2023-03-21T02:09:04;76654.97;;;-142.11;100.00
14800;BME280;7491;57.750;11.970;2023-03-21T02:11:34;76646.81;;;-142.11;100.00
14800;BME280;7491;57.750;11.970;2023-03-21T02:14:03;76640.72;;;-142.11;100.00
14800;BME280;7491;57.750;11.970;2023-03-21T02:16:42;76640.72;;;-142.11;100.00
14800;BME280;7491;57.750;11.970;2023-03-21T02:22:42;76657.03;;;-142.11;100.00
14800;BME280;7491;57.750;11.970;2023-03-21T02:25:47;76652.94;;;-142.11;100.00
14800;BME280;7491;57.750;11.970;2023-03-21T02:28:23;76661.09;;;-142.11;100.00
14800;BME280;7491;57.750;11.970;2023-03-21T02:31:17;76693.72;;;-142.11;100.00
14800;BME280;7491;57.750;11.970;2023-03-21T02:37:06;76687.59;;;-142.11;100.00
14800;BME280;7491;57.750;11.970;2023-03-21T02:39:45;76699.84;;;-142.11;100.00
14800;BME280;7491;57.750;11.970;2023-03-21T02:42:19;76712.06;;;-142.11;100.00
14800;BME280;7491;57.750;11.970;2023-03-21T02:44:53;76687.59;;;-142.11;100.00
14800;BME280;7491;57.750;11.970;2023-03-21T02:47:27;76679.44;;;-142.11;100.00
14800;BME280;7491;57.750;11.970;2023-03-21T02:50:02;76671.28;;;-142.11;100.00
14800;BME280;7491;57.750;11.970;2023-03-21T02:52:33;76689.63;;;-142.11;100.00
14800;BME280;7491;57.750;11.970;2023-03-21T02:55:02;76675.38;;;-142.11;100.00
14800;BME280;7491;57.750;11.970;2023-03-21T02:57:31;76669.25;;;-142.11;100.00
14800;BME280;7491;57.750;11.970;2023-03-21T02:59:59;76681.50;;;-142.11;100.00
14800;BME280;7491;57.750;11.970;2023-03-21T03:02:32;76673.31;;;-142.11;100.00
14800;BME280;7491;57.750;11.970;2023-03-21T03:04:59;76685.56;;;-142.11;100.00
14800;BME280;7491;57.750;11.970;2023-03-21T03:07:37;76689.63;;;-142.11;100.00
14800;BME280;7491;57.750;11.970;2023-03-21T03:10:33;76669.25;;;-142.11;100.00
14800;BME280;7491;57.750;11.970;2023-03-21T03:13:14;76654.97;;;-142.11;100.00
14800;BME280;7491;57.750;11.970;2023-03-21T03:15:52;76661.09;;;-142.11;100.00
14800;BME280;7491;57.750;11.970;2023-03-21T03:18:27;76665.19;;;-142.11;100.00
14800;BME280;7491;57.750;11.970;2023-03-21T03:21:01;76669.25;;;-142.11;100.00
14800;BME280;7491;57.750;11.970;2023-03-21T03:23:35;76685.56;;;-142.11;100.00
14800;BME280;7491;57.750;11.970;2023-03-21T03:26:08;76679.44;;;-142.11;100.00
14800;BME280;7491;57.750;11.970;2023-03-21T03:28:42;76671.28;;;-142.11;100.00
14800;BME280;7491;57.750;11.970;2023-03-21T03:31:12;76671.28;;;-142.11;100.00
14800;BME280;7491;57.750;11.970;2023-03-21T03:33:42;76687.59;;;-142.11;100.00
14800;BME280;7491;57.750;11.970;2023-03-21T03:36:13;76659.06;;;-142.11;100.00
14800;BME280;7491;57.750;11.970;2023-03-21T03:38:45;76652.94;;;-142.11;100.00
14800;BME280;7491;57.750;11.970;2023-03-21T03:41:17;76669.25;;;-142.11;100.00
14800;BME280;7491;57.750;11.970;2023-03-21T03:43:47;76701.88;;;-142.11;100.00
14800;BME280;7491;57.750;11.970;2023-03-21T03:46:17;76685.56;;;-142.11;100.00
14800;BME280;7491;57.750;11.970;2023-03-21T03:48:48;76697.78;;;-142.11;100.00
14800;BME280;7491;57.750;11.970;2023-03-21T03:51:21;76697.78;;;-142.11;100.00
14800;BME280;7491;57.750;11.970;2023-03-21T03:53:54;76677.41;;;-142.11;100.00
14800;BME280;7491;57.750;11.970;2023-03-21T03:56:21;76669.25;;;-142.11;100.00
14800;BME280;7491;57.750;11.970;2023-03-21T03:58:50;76654.97;;;-142.11;100.00
14800;BME280;7491;57.750;11.970;2023-03-21T04:01:16;76663.13;;;-142.11;100.00
14800;BME280;7491;57.750;11.970;2023-03-21T04:03:46;76659.06;;;-142.11;100.00
14800;BME280;7491;57.750;11.970;2023-03-21T04:06:14;76665.19;;;-142.11;100.00
14800;BME280;7491;57.750;11.970;2023-03-21T04:08:41;76673.31;;;-142.11;100.00
14800;BME280;7491;57.750;11.970;2023-03-21T04:11:12;76695.75;;;-142.11;100.00
14800;BME280;7491;57.750;11.970;2023-03-21T04:13:39;76669.25;;;-142.11;100.00
14800;BME280;7491;57.750;11.970;2023-03-21T04:16:06;76669.25;;;-142.11;100.00
14800;BME280;7491;57.750;11.970;2023-03-21T04:18:33;76671.28;;;-142.11;100.00
14800;BME280;7491;57.750;11.970;2023-03-21T04:21:00;76661.09;;;-142.11;100.00
14800;BME280;7491;57.750;11.970;2023-03-21T04:23:27;76652.94;;;-142.11;100.00
14800;BME280;7491;57.750;11.970;2023-03-21T04:25:54;76675.38;;;-142.11;100.00
14800;BME280;7491;57.750;11.970;2023-03-21T04:28:22;76657.03;;;-142.11;100.00
14800;BME280;7491;57.750;11.970;2023-03-21T04:30:49;76657.03;;;-142.11;100.00
14800;BME280;7491;57.750;11.970;2023-03-21T04:33:16;76661.09;;;-142.11;100.00
14800;BME280;7491;57.750;11.970;2023-03-21T04:35:44;76667.22;;;-142.11;100.00
14800;BME280;7491;57.750;11.970;2023-03-21T04:38:11;76667.22;;;-142.11;100.00
14800;BME280;7491;57.750;11.970;2023-03-21T04:40:38;76675.38;;;-142.11;100.00
14800;BME280;7491;57.750;11.970;2023-03-21T04:43:05;76671.28;;;-142.11;100.00
14800;BME280;7491;57.750;11.970;2023-03-21T04:45:34;76673.31;;;-142.11;100.00
14800;BME280;7491;57.750;11.970;2023-03-21T04:48:01;76667.22;;;-142.11;100.00
14800;BME280;7491;57.750;11.970;2023-03-21T04:50:28;76681.50;;;-142.11;100.00
14800;BME280;7491;57.750;11.970;2023-03-21T04:52:56;76681.50;;;-142.11;100.00
14800;BME280;7491;57.750;11.970;2023-03-21T04:55:22;76687.59;;;-142.11;100.00
14800;BME280;7491;57.750;11.970;2023-03-21T04:57:52;76685.56;;;-142.11;100.00
14800;BME280;7491;57.750;11.970;2023-03-21T05:00:19;76673.31;;;-142.11;100.00
14800;BME280;7491;57.750;11.970;2023-03-21T05:02:48;76665.19;;;-142.11;100.00
14800;BME280;7491;57.750;11.970;2023-03-21T05:05:15;76667.22;;;-142.11;100.00
14800;BME280;7491;57.750;11.970;2023-03-21T05:07:42;76673.31;;;-142.11;100.00
14800;BME280;7491;57.750;11.970;2023-03-21T05:10:10;76667.22;;;-142.11;100.00
14800;BME280;7491;57.750;11.970;2023-03-21T05:12:38;76669.25;;;-142.11;100.00
14800;BME280;7491;57.750;11.970;2023-03-21T05:15:06;76671.28;;;-142.11;100.00
14800;BME280;7491;57.750;11.970;2023-03-21T05:17:33;76679.44;;;-142.11;100.00
14800;BME280;7491;57.750;11.970;2023-03-21T05:20:02;76679.44;;;-142.11;100.00
14800;BME280;7491;57.750;11.970;2023-03-21T05:22:30;76675.38;;;-142.11;100.00
14800;BME280;7491;57.750;11.970;2023-03-21T05:25:05;76665.19;;;-142.11;100.00
14800;BME280;7491;57.750;11.970;2023-03-21T05:27:32;76669.25;;;-142.11;100.00
14800;BME280;7491;57.750;11.970;2023-03-21T05:30:01;76671.28;;;-142.11;100.00
14800;BME280;7491;57.750;11.970;2023-03-21T05:32:27;76663.13;;;-142.11;100.00
14800;BME280;7491;57.750;11.970;2023-03-21T05:34:54;76661.09;;;-142.11;100.00
14800;BME280;7491;57.750;11.970;2023-03-21T05:37:23;76659.06;;;-142.11;100.00
14800;BME280;7491;57.750;11.970;2023-03-21T05:39:50;76659.06;;;-142.11;100.00
14800;BME280;7491;57.750;11.970;2023-03-21T05:42:16;76661.09;;;-142.11;100.00
14800;BME280;7491;57.750;11.970;2023-03-21T05:44:44;76667.22;;;-142.11;100.00
14800;BME280;7491;57.750;11.970;2023-03-21T05:47:11;76693.72;;;-142.11;100.00
14800;BME280;7491;57.750;11.970;2023-03-21T05:49:38;76693.72;;;-142.11;100.00
14800;BME280;7491;57.750;11.970;2023-03-21T05:52:05;76689.63;;;-142.11;100.00
14800;BME280;7491;57.750;11.970;2023-03-21T05:54:34;76695.75;;;-142.11;100.00
14800;BME280;7491;57.750;11.970;2023-03-21T05:57:02;76699.84;;;-142.11;100.00
14800;BME280;7491;57.750;11.970;2023-03-21T05:59:29;76695.75;;;-142.11;100.00
14800;BME280;7491;57.750;11.970;2023-03-21T06:01:55;76689.63;;;-142.11;100.00
14800;BME280;7491;57.750;11.970;2023-03-21T06:04:22;76675.38;;;-142.11;100.00
14800;BME280;7491;57.750;11.970;2023-03-21T06:06:50;76679.44;;;-142.11;100.00
14800;BME280;7491;57.750;11.970;2023-03-21T06:09:18;76687.59;;;-142.11;100.00
14800;BME280;7491;57.750;11.970;2023-03-21T06:11:49;76691.69;;;-142.11;100.00
14800;BME280;7491;57.750;11.970;2023-03-21T06:14:17;76681.50;;;-142.11;100.00
14800;BME280;7491;57.750;11.970;2023-03-21T06:16:44;76687.59;;;-142.11;100.00
14800;BME280;7491;57.750;11.970;2023-03-21T06:19:10;76691.69;;;-142.11;100.00
14800;BME280;7491;57.750;11.970;2023-03-21T06:21:37;76681.50;;;-142.11;100.00
14800;BME280;7491;57.750;11.970;2023-03-21T06:24:04;76697.78;;;-142.11;100.00
14800;BME280;7491;57.750;11.970;2023-03-21T06:26:31;76695.75;;;-142.11;100.00
14800;BME280;7491;57.750;11.970;2023-03-21T06:29:00;76689.63;;;-142.11;100.00
14800;BME280;7491;57.750;11.970;2023-03-21T06:31:26;76693.72;;;-142.11;100.00
14800;BME280;7491;57.750;11.970;2023-03-21T06:33:53;76699.84;;;-142.11;100.00
14800;BME280;7491;57.750;11.970;2023-03-21T06:36:20;76685.56;;;-142.11;100.00
14800;BME280;7491;57.750;11.970;2023-03-21T06:38:47;76697.78;;;-142.11;100.00
14800;BME280;7491;57.750;11.970;2023-03-21T06:41:14;76701.88;;;-142.11;100.00
14800;BME280;7491;57.750;11.970;2023-03-21T06:43:41;76714.09;;;-142.11;100.00
14800;BME280;7491;57.750;11.970;2023-03-21T06:46:09;76716.16;;;-142.11;100.00
14800;BME280;7491;57.750;11.970;2023-03-21T06:48:37;76728.38;;;-142.11;100.00
14800;BME280;7491;57.750;11.970;2023-03-21T06:51:09;76730.41;;;-142.11;100.00
14800;BME280;7491;57.750;11.970;2023-03-21T06:53:36;76730.41;;;-142.11;100.00
14800;BME280;7491;57.750;11.970;2023-03-21T06:56:03;76722.25;;;-142.11;100.00
14800;BME280;7491;57.750;11.970;2023-03-21T06:58:30;76726.34;;;-142.11;100.00
14800;BME280;7491;57.750;11.970;2023-03-21T07:00:57;76720.22;;;-142.11;100.00
14800;BME280;7491;57.750;11.970;2023-03-21T07:03:26;76724.31;;;-142.11;100.00
14800;BME280;7491;57.750;11.970;2023-03-21T07:05:55;76722.25;;;-142.11;100.00
14800;BME280;7491;57.750;11.970;2023-03-21T07:08:23;76712.06;;;-142.11;100.00
14800;BME280;7491;57.750;11.970;2023-03-21T07:10:49;76703.91;;;-142.11;100.00
14800;BME280;7491;57.750;11.970;2023-03-21T07:13:20;76703.91;;;-142.11;100.00
14800;BME280;7491;57.750;11.970;2023-03-21T07:15:47;76718.19;;;-142.11;100.00
14800;BME280;7491;57.750;11.970;2023-03-21T07:18:14;76714.09;;;-142.11;100.00
14800;BME280;7491;57.750;11.970;2023-03-21T07:20:45;76710.03;;;-142.11;100.00
14800;BME280;7491;57.750;11.970;2023-03-21T07:23:15;76712.06;;;-142.11;100.00
14800;BME280;7491;57.750;11.970;2023-03-21T07:25:42;76699.84;;;-142.11;100.00
14800;BME280;7491;57.750;11.970;2023-03-21T07:28:08;76701.88;;;-142.11;100.00
14800;BME280;7491;57.750;11.970;2023-03-21T07:30:35;76705.94;;;-142.11;100.00
14800;BME280;7491;57.750;11.970;2023-03-21T07:33:02;76720.22;;;-142.11;100.00
14800;BME280;7491;57.750;11.970;2023-03-21T07:35:30;76701.88;;;-142.11;100.00
14800;BME280;7491;57.750;11.970;2023-03-21T07:37:58;76701.88;;;-142.11;100.00
14800;BME280;7491;57.750;11.970;2023-03-21T07:40:25;76701.88;;;-142.11;100.00
14800;BME280;7491;57.750;11.970;2023-03-21T07:42:51;76685.56;;;-142.11;100.00
14800;BME280;7491;57.750;11.970;2023-03-21T07:45:18;76685.56;;;-142.11;100.00
14800;BME280;7491;57.750;11.970;2023-03-21T07:47:48;76689.63;;;-142.11;100.00
14800;BME280;7491;57.750;11.970;2023-03-21T07:50:15;76677.41;;;-142.11;100.00
14800;BME280;7491;57.750;11.970;2023-03-21T07:52:42;76675.38;;;-142.11;100.00
14800;BME280;7491;57.750;11.970;2023-03-21T07:55:11;76671.28;;;-142.11;100.00
14800;BME280;7491;57.750;11.970;2023-03-21T07:57:38;76654.97;;;-142.11;100.00
14800;BME280;7491;57.750;11.970;2023-03-21T08:00:06;76667.22;;;-142.11;100.00
14800;BME280;7491;57.750;11.970;2023-03-21T08:02:33;76669.25;;;-142.11;100.00
14800;BME280;7491;57.750;11.970;2023-03-21T08:05:00;76669.25;;;-142.11;100.00
14800;BME280;7491;57.750;11.970;2023-03-21T08:07:28;76663.13;;;-142.11;100.00
14800;BME280;7491;57.750;11.970;2023-03-21T08:09:55;76650.91;;;-142.11;100.00
14800;BME280;7491;57.750;11.970;2023-03-21T08:12:23;76665.19;;;-142.11;100.00
14800;BME280;7491;57.750;11.970;2023-03-21T08:14:50;76648.88;;;-142.11;100.00
14800;BME280;7491;57.750;11.970;2023-03-21T08:17:17;76652.94;;;-142.11;100.00
14800;BME280;7491;57.750;11.970;2023-03-21T08:19:44;76657.03;;;-142.11;100.00
14800;BME280;7491;57.750;11.970;2023-03-21T08:22:10;76650.91;;;-142.11;100.00
14800;BME280;7491;57.750;11.970;2023-03-21T08:24:37;76642.75;;;-142.11;100.00
14800;BME280;7491;57.750;11.970;2023-03-21T08:27:04;76640.72;;;-142.11;100.00
14800;BME280;7491;57.750;11.970;2023-03-21T08:29:32;76640.72;;;-142.11;100.00
14800;BME280;7491;57.750;11.970;2023-03-21T08:31:58;76620.31;;;-142.11;100.00
14800;BME280;7491;57.750;11.970;2023-03-21T08:34:25;76624.41;;;-142.11;100.00
14800;BME280;7491;57.750;11.970;2023-03-21T08:36:52;76626.44;;;-142.11;100.00
14800;BME280;7491;57.750;11.970;2023-03-21T08:39:19;76624.41;;;-142.11;100.00
14800;BME280;7491;57.750;11.970;2023-03-21T08:41:46;76620.31;;;-142.11;100.00
14800;BME280;7491;57.750;11.970;2023-03-21T08:44:13;76624.41;;;-142.11;100.00
14800;BME280;7491;57.750;11.970;2023-03-21T08:46:42;76616.25;;;-142.11;100.00
14800;BME280;7491;57.750;11.970;2023-03-21T08:49:09;76608.09;;;-142.11;100.00
14800;BME280;7491;57.750;11.970;2023-03-21T08:51:36;76604.00;;;-142.11;100.00
14800;BME280;7491;57.750;11.970;2023-03-21T08:54:05;76612.16;;;-142.11;100.00
14800;BME280;7491;57.750;11.970;2023-03-21T08:56:32;76601.97;;;-142.11;100.00
14800;BME280;7491;57.750;11.970;2023-03-21T08:58:58;76595.84;;;-142.11;100.00
14800;BME280;7491;57.750;11.970;2023-03-21T09:01:27;76591.78;;;-142.11;100.00
14800;BME280;7491;57.750;11.970;2023-03-21T09:03:55;76597.91;;;-142.11;100.00
14800;BME280;7491;57.750;11.970;2023-03-21T09:06:22;76583.63;;;-142.11;100.00
14800;BME280;7491;57.750;11.970;2023-03-21T09:08:49;76581.59;;;-142.11;100.00
14800;BME280;7491;57.750;11.970;2023-03-21T09:11:17;76571.38;;;-142.11;100.00
14800;BME280;7491;57.750;11.970;2023-03-21T09:13:44;76548.97;;;-142.11;100.00
14800;BME280;7491;57.750;11.970;2023-03-21T09:16:11;76542.84;;;-142.11;100.00
14800;BME280;7491;57.750;11.970;2023-03-21T09:18:38;76546.94;;;-142.11;100.00
14800;BME280;7491;57.750;11.970;2023-03-21T09:21:13;76548.97;;;-142.11;100.00
14800;BME280;7491;57.750;11.970;2023-03-21T09:23:41;76551.00;;;-142.11;100.00
14800;BME280;7491;57.750;11.970;2023-03-21T09:26:09;76528.56;;;-142.11;100.00
14800;BME280;7491;57.750;11.970;2023-03-21T09:28:37;76526.53;;;-142.11;100.00
14800;BME280;7491;57.750;11.970;2023-03-21T09:31:05;76518.38;;;-142.11;100.00
14800;BME280;7491;57.750;11.970;2023-03-21T09:33:33;76508.19;;;-142.11;100.00
14800;BME280;7491;57.750;11.970;2023-03-21T09:36:00;76500.03;;;-142.11;100.00
14800;BME280;7491;57.750;11.970;2023-03-21T09:38:32;76481.69;;;-142.11;100.00
14800;BME280;7491;57.750;11.970;2023-03-21T09:41:14;76477.63;;;-142.11;100.00
14800;BME280;7491;57.750;11.970;2023-03-21T09:43:51;76469.44;;;-142.11;100.00
14800;BME280;7491;57.750;11.970;2023-03-21T09:46:29;76469.44;;;-142.11;100.00
14800;BME280;7491;57.750;11.970;2023-03-21T09:49:01;76449.06;;;-142.11;100.00
14800;BME280;7491;57.750;11.970;2023-03-21T09:51:36;76457.22;;;-142.11;100.00
14800;BME280;7491;57.750;11.970;2023-03-21T10:04:14;76355.28;;;-142.11;100.00
14800;BME280;7491;57.750;11.970;2023-03-21T10:06:44;76343.06;;;-142.11;100.00
14800;BME280;7491;57.750;11.970;2023-03-21T10:09:15;76369.56;;;-142.11;100.00
14800;BME280;7491;57.750;11.970;2023-03-21T10:11:48;76343.06;;;-142.11;100.00
14800;BME280;7491;57.750;11.970;2023-03-21T10:14:20;76330.81;;;-142.11;100.00
14800;BME280;7491;57.750;11.970;2023-03-21T10:16:54;76306.38;;;-142.11;100.00
14800;BME280;7491;57.750;11.970;2023-03-21T10:19:25;76298.22;;;-142.11;100.00
14800;BME280;7491;57.750;11.970;2023-03-21T10:21:53;76275.78;;;-142.11;100.00
14800;BME280;7491;57.750;11.970;2023-03-21T10:24:22;76277.81;;;-142.11;100.00
14800;BME280;7491;57.750;11.970;2023-03-21T10:26:51;76285.97;;;-142.11;100.00
14800;BME280;7491;57.750;11.970;2023-03-21T10:29:22;76249.28;;;-142.11;100.00
14800;BME280;7491;57.750;11.970;2023-03-21T10:31:50;76218.72;;;-142.11;100.00
14800;BME280;7491;57.750;11.970;2023-03-21T10:34:32;76228.91;;;-142.11;100.00
14800;BME280;7491;57.750;11.970;2023-03-21T10:37:02;76214.63;;;-142.11;100.00
14800;BME280;7491;57.750;11.970;2023-03-21T10:39:33;76228.91;;;-142.11;100.00
14800;BME280;7491;57.750;11.970;2023-03-21T10:42:01;76212.59;;;-142.11;100.00
14800;BME280;7491;57.750;11.970;2023-03-21T10:44:29;76226.84;;;-142.11;100.00
14800;BME280;7491;57.750;11.970;2023-03-21T10:47:02;76190.16;;;-142.11;100.00
14800;BME280;7491;57.750;11.970;2023-03-21T10:49:33;76188.13;;;-142.11;100.00
14800;BME280;7491;57.750;11.970;2023-03-21T10:52:04;76182.00;;;-142.11;100.00
14800;BME280;7491;57.750;11.970;2023-03-21T10:54:33;76177.94;;;-142.11;100.00
14800;BME280;7491;57.750;11.970;2023-03-21T10:57:04;76182.00;;;-142.11;100.00
14800;BME280;7491;57.750;11.970;2023-03-21T10:59:39;76151.44;;;-142.11;100.00
14800;BME280;7491;57.750;11.970;2023-03-21T11:02:18;76133.09;;;-142.11;100.00
14800;BME280;7491;57.750;11.970;2023-03-21T11:05:16;76141.25;;;-142.11;100.00
14800;BME280;7491;57.750;11.970;2023-03-21T11:07:56;76179.97;;;-142.11;100.00
14800;BME280;7491;57.750;11.970;2023-03-21T11:10:27;76186.09;;;-142.11;100.00
14800;BME280;7491;57.750;11.970;2023-03-21T11:12:56;76173.84;;;-142.11;100.00
14800;BME280;7491;57.750;11.970;2023-03-21T11:15:27;76149.41;;;-142.11;100.00
14800;BME280;7491;57.750;11.970;2023-03-21T11:17:56;76143.28;;;-142.11;100.00
14800;BME280;7491;57.750;11.970;2023-03-21T11:20:29;76137.16;;;-142.11;100.00
14800;BME280;7491;57.750;11.970;2023-03-21T11:23:06;76120.84;;;-142.11;100.00
14800;BME280;7491;57.750;11.970;2023-03-21T11:25:40;76112.72;;;-142.11;100.00
14800;BME280;7491;57.750;11.970;2023-03-21T11:28:12;76106.59;;;-142.11;100.00
14800;BME280;7491;57.750;11.970;2023-03-21T11:30:59;76124.94;;;-142.11;100.00
14800;BME280;7491;57.750;11.970;2023-03-21T11:33:36;76122.91;;;-142.11;100.00
14800;BME280;7491;57.750;11.970;2023-03-21T11:36:33;76126.97;;;-142.11;100.00
14800;BME280;7491;57.750;11.970;2023-03-21T11:39:27;76108.63;;;-142.11;100.00
14800;BME280;7491;57.750;11.970;2023-03-21T11:42:31;76092.31;;;-142.11;100.00
14800;BME280;7491;57.750;11.970;2023-03-21T11:45:15;76106.59;;;-142.11;100.00
14800;BME280;7491;57.750;11.970;2023-03-21T11:48:06;76082.13;;;-142.11;100.00
14800;BME280;7491;57.750;11.970;2023-03-21T11:50:51;76082.13;;;-142.11;100.00
14800;BME280;7491;57.750;11.970;2023-03-21T12:06:57;76094.34;;;-142.11;100.00
14800;BME280;7491;57.750;11.970;2023-03-21T12:09:37;76080.09;;;-142.11;100.00
14800;BME280;7491;57.750;11.970;2023-03-21T12:12:21;76073.97;;;-142.11;100.00
14800;BME280;7491;57.750;11.970;2023-03-21T12:14:57;76053.59;;;-142.11;100.00
14800;BME280;7491;57.750;11.970;2023-03-21T12:17:35;76084.16;;;-142.11;100.00
14800;BME280;7491;57.750;11.970;2023-03-21T12:20:15;76063.78;;;-142.11;100.00
14800;BME280;7491;57.750;11.970;2023-03-21T12:23:10;76051.56;;;-142.11;100.00
14800;BME280;7491;57.750;11.970;2023-03-21T12:25:44;76053.59;;;-142.11;100.00
14800;BME280;7491;57.750;11.970;2023-03-21T12:28:26;76051.56;;;-142.11;100.00
14800;BME280;7491;57.750;11.970;2023-03-21T12:34:38;76084.16;;;-142.11;100.00
14800;BME280;7491;57.750;11.970;2023-03-21T12:37:36;76059.69;;;-142.11;100.00
14800;BME280;7491;57.750;11.970;2023-03-21T12:40:33;76053.59;;;-142.11;100.00
14800;BME280;7491;57.750;11.970;2023-03-21T12:43:46;76073.97;;;-142.11;100.00
14800;BME280;7491;57.750;11.970;2023-03-21T12:47:23;76078.06;;;-142.11;100.00
14800;BME280;7491;57.750;11.970;2023-03-21T12:49:49;76065.81;;;-142.11;100.00
14800;BME280;7491;57.750;11.970;2023-03-21T12:52:31;76061.75;;;-142.11;100.00
14800;BME280;7491;57.750;11.970;2023-03-21T12:55:08;76063.78;;;-142.11;100.00
14800;BME280;7491;57.750;11.970;2023-03-21T12:58:00;76057.66;;;-142.11;100.00
14800;BME280;7491;57.750;11.970;2023-03-21T13:00:40;76039.31;;;-142.11;100.00
14800;BME280;7491;57.750;11.970;2023-03-21T13:03:20;76035.25;;;-142.11;100.00
14800;BME280;7491;57.750;11.970;2023-03-21T13:06:22;76023.00;;;-142.11;100.00
14800;BME280;7491;57.750;11.970;2023-03-21T13:09:28;76037.28;;;-142.11;100.00
14800;BME280;7491;57.750;11.970;2023-03-21T13:12:04;76055.63;;;-142.11;100.00
14800;BME280;7491;57.750;11.970;2023-03-21T13:14:47;76045.44;;;-142.11;100.00
14800;BME280;7491;57.750;11.970;2023-03-21T13:18:38;76018.94;;;-142.11;100.00
14800;BME280;7491;57.750;11.970;2023-03-21T13:20:46;76006.72;;;-142.11;100.00
14800;BME280;7491;57.750;11.970;2023-03-21T13:26:46;75986.31;;;-142.11;100.00
14800;BME280;7491;57.750;11.970;2023-03-21T13:39:20;76004.66;;;-142.11;100.00
14800;BME280;7491;57.750;11.970;2023-03-21T13:42:44;75998.56;;;-142.11;100.00